sensor_id;sensor_type;location;lat;lon;timestamp;temperature;humidity
7648;DHT22;3866;48.020;11.720;2022-08-23T00:01:56;13.50;99.90
7648;DHT22;3866;48.020;11.720;2022-08-23T00:04:27;13.60;99.90
7648;DHT22;3866;48.020;11.720;2022-08-23T00:06:55;13.50;99.90
7648;DHT22;3866;48.020;11.720;2022-08-23T00:09:23;13.50;99.90
7648;DHT22;3866;48.020;11.720;2022-08-23T00:11:52;13.50;99.90
7648;DHT22;3866;48.020;11.720;2022-08-23T00:14:22;13.50;99.90
7648;DHT22;3866;48.020;11.720;2022-08-23T00:16:49;13.40;99.90
7648;DHT22;3866;48.020;11.720;2022-08-23T00:19:20;13.40;99.90
7648;DHT22;3866;48.020;11.720;2022-08-23T00:21:51;13.40;99.90
7648;DHT22;3866;48.020;11.720;2022-08-23T00:24:20;13.40;99.90
7648;DHT22;3866;48.020;11.720;2022-08-23T00:26:49;13.40;99.90
7648;DHT22;3866;48.020;11.720;2022-08-23T00:29:16;13.30;99.90
7648;DHT22;3866;48.020;11.720;2022-08-23T00:31:44;13.30;99.90
7648;DHT22;3866;48.020;11.720;2022-08-23T00:34:11;13.40;99.90
7648;DHT22;3866;48.020;11.720;2022-08-23T00:36:38;13.40;99.90
7648;DHT22;3866;48.020;11.720;2022-08-23T00:39:07;13.30;99.90
7648;DHT22;3866;48.020;11.720;2022-08-23T00:41:36;13.10;99.90
7648;DHT22;3866;48.020;11.720;2022-08-23T00:44:04;13.10;99.90
7648;DHT22;3866;48.020;11.720;2022-08-23T00:46:52;13.20;99.90
7648;DHT22;3866;48.020;11.720;2022-08-23T00:49:48;13.20;99.90
7648;DHT22;3866;48.020;11.720;2022-08-23T00:52:21;13.20;99.90
7648;DHT22;3866;48.020;11.720;2022-08-23T00:54:53;13.30;99.90
7648;DHT22;3866;48.020;11.720;2022-08-23T00:57:20;13.40;99.90
7648;DHT22;3866;48.020;11.720;2022-08-23T00:59:47;13.50;99.90
7648;DHT22;3866;48.020;11.720;2022-08-23T01:02:15;13.40;99.90
7648;DHT22;3866;48.020;11.720;2022-08-23T01:04:44;13.50;99.90
7648;DHT22;3866;48.020;11.720;2022-08-23T01:07:19;13.50;99.90
7648;DHT22;3866;48.020;11.720;2022-08-23T01:09:50;13.50;99.90
7648;DHT22;3866;48.020;11.720;2022-08-23T01:12:30;13.50;99.90
7648;DHT22;3866;48.020;11.720;2022-08-23T01:15:00;13.40;99.90
7648;DHT22;3866;48.020;11.720;2022-08-23T01:17:33;13.40;99.90
7648;DHT22;3866;48.020;11.720;2022-08-23T01:20:04;13.50;99.90
7648;DHT22;3866;48.020;11.720;2022-08-23T01:22:34;13.60;99.90
7648;DHT22;3866;48.020;11.720;2022-08-23T01:25:06;13.50;99.90
7648;DHT22;3866;48.020;11.720;2022-08-23T01:27:34;13.40;99.90
7648;DHT22;3866;48.020;11.720;2022-08-23T01:30:02;13.20;99.90
7648;DHT22;3866;48.020;11.720;2022-08-23T01:32:29;13.30;99.90
7648;DHT22;3866;48.020;11.720;2022-08-23T01:34:57;13.20;99.90
7648;DHT22;3866;48.020;11.720;2022-08-23T01:37:24;13.20;99.90
7648;DHT22;3866;48.020;11.720;2022-08-23T01:39:51;13.10;99.90
7648;DHT22;3866;48.020;11.720;2022-08-23T01:42:21;13.00;99.90
7648;DHT22;3866;48.020;11.720;2022-08-23T01:44:47;12.90;99.90
7648;DHT22;3866;48.020;11.720;2022-08-23T01:47:14;12.90;99.90
7648;DHT22;3866;48.020;11.720;2022-08-23T01:49:41;12.80;99.90
7648;DHT22;3866;48.020;11.720;2022-08-23T01:52:08;12.70;99.90
7648;DHT22;3866;48.020;11.720;2022-08-23T01:54:35;12.70;99.90
7648;DHT22;3866;48.020;11.720;2022-08-23T01:57:04;12.70;99.90
7648;DHT22;3866;48.020;11.720;2022-08-23T01:59:32;12.70;99.90
7648;DHT22;3866;48.020;11.720;2022-08-23T02:01:59;12.70;99.90
7648;DHT22;3866;48.020;11.720;2022-08-23T02:04:27;12.70;99.90
7648;DHT22;3866;48.020;11.720;2022-08-23T02:06:55;12.70;99.90
7648;DHT22;3866;48.020;11.720;2022-08-23T02:09:22;12.70;99.90
7648;DHT22;3866;48.020;11.720;2022-08-23T02:11:49;12.80;99.90
7648;DHT22;3866;48.020;11.720;2022-08-23T02:14:18;12.80;99.90
7648;DHT22;3866;48.020;11.720;2022-08-23T02:16:49;12.80;99.90
7648;DHT22;3866;48.020;11.720;2022-08-23T02:19:16;12.70;99.90
7648;DHT22;3866;48.020;11.720;2022-08-23T02:21:44;12.70;99.90
7648;DHT22;3866;48.020;11.720;2022-08-23T02:24:14;12.60;99.90
7648;DHT22;3866;48.020;11.720;2022-08-23T02:26:45;12.60;99.90
7648;DHT22;3866;48.020;11.720;2022-08-23T02:29:13;12.40;99.90
7648;DHT22;3866;48.020;11.720;2022-08-23T02:31:42;12.40;99.90
7648;DHT22;3866;48.020;11.720;2022-08-23T02:34:11;12.30;99.90
7648;DHT22;3866;48.020;11.720;2022-08-23T02:36:38;12.20;99.90
7648;DHT22;3866;48.020;11.720;2022-08-23T02:39:07;12.10;99.90
7648;DHT22;3866;48.020;11.720;2022-08-23T02:41:35;12.00;99.90
7648;DHT22;3866;48.020;11.720;2022-08-23T02:44:02;12.00;99.90
7648;DHT22;3866;48.020;11.720;2022-08-23T02:46:29;11.90;99.90
7648;DHT22;3866;48.020;11.720;2022-08-23T02:48:57;11.90;99.90
7648;DHT22;3866;48.020;11.720;2022-08-23T02:51:25;11.80;99.90
7648;DHT22;3866;48.020;11.720;2022-08-23T02:53:52;11.80;99.90
7648;DHT22;3866;48.020;11.720;2022-08-23T02:56:19;11.60;99.90
7648;DHT22;3866;48.020;11.720;2022-08-23T02:58:46;11.50;99.90
7648;DHT22;3866;48.020;11.720;2022-08-23T03:01:16;11.60;99.90
7648;DHT22;3866;48.020;11.720;2022-08-23T03:03:44;11.70;99.90
7648;DHT22;3866;48.020;11.720;2022-08-23T03:06:11;11.70;99.90
7648;DHT22;3866;48.020;11.720;2022-08-23T03:08:40;11.60;99.90
7648;DHT22;3866;48.020;11.720;2022-08-23T03:11:10;11.70;99.90
7648;DHT22;3866;48.020;11.720;2022-08-23T03:13:38;11.70;99.90
7648;DHT22;3866;48.020;11.720;2022-08-23T03:16:06;11.80;99.90
7648;DHT22;3866;48.020;11.720;2022-08-23T03:18:34;11.80;99.90
7648;DHT22;3866;48.020;11.720;2022-08-23T03:21:01;11.90;99.90
7648;DHT22;3866;48.020;11.720;2022-08-23T03:23:28;11.90;99.90
7648;DHT22;3866;48.020;11.720;2022-08-23T03:25:57;11.90;99.90
7648;DHT22;3866;48.020;11.720;2022-08-23T03:28:24;12.00;99.90
7648;DHT22;3866;48.020;11.720;2022-08-23T03:30:52;11.80;99.90
7648;DHT22;3866;48.020;11.720;2022-08-23T03:33:19;11.50;99.90
7648;DHT22;3866;48.020;11.720;2022-08-23T03:35:46;11.50;99.90
7648;DHT22;3866;48.020;11.720;2022-08-23T03:38:14;11.60;99.90
7648;DHT22;3866;48.020;11.720;2022-08-23T03:40:41;11.60;99.90
7648;DHT22;3866;48.020;11.720;2022-08-23T03:43:09;11.60;99.90
7648;DHT22;3866;48.020;11.720;2022-08-23T03:45:36;11.60;99.90
7648;DHT22;3866;48.020;11.720;2022-08-23T03:48:04;11.40;99.90
7648;DHT22;3866;48.020;11.720;2022-08-23T03:50:31;11.50;99.90
7648;DHT22;3866;48.020;11.720;2022-08-23T03:52:57;11.60;99.90
7648;DHT22;3866;48.020;11.720;2022-08-23T03:55:24;11.60;99.90
7648;DHT22;3866;48.020;11.720;2022-08-23T03:57:51;11.60;99.90
7648;DHT22;3866;48.020;11.720;2022-08-23T04:00:20;11.50;99.90
7648;DHT22;3866;48.020;11.720;2022-08-23T04:02:47;11.60;99.90
7648;DHT22;3866;48.020;11.720;2022-08-23T04:05:14;11.60;99.90
7648;DHT22;3866;48.020;11.720;2022-08-23T04:07:41;11.50;99.90
7648;DHT22;3866;48.020;11.720;2022-08-23T04:10:09;11.60;99.90
7648;DHT22;3866;48.020;11.720;2022-08-23T04:12:39;11.60;99.90
7648;DHT22;3866;48.020;11.720;2022-08-23T04:15:07;11.60;99.90
7648;DHT22;3866;48.020;11.720;2022-08-23T04:17:36;11.50;99.90
7648;DHT22;3866;48.020;11.720;2022-08-23T04:20:03;11.40;99.90
7648;DHT22;3866;48.020;11.720;2022-08-23T04:22:30;11.20;99.90
7648;DHT22;3866;48.020;11.720;2022-08-23T04:24:58;11.10;99.90
7648;DHT22;3866;48.020;11.720;2022-08-23T04:27:25;11.00;99.90
7648;DHT22;3866;48.020;11.720;2022-08-23T04:29:51;11.00;99.90
7648;DHT22;3866;48.020;11.720;2022-08-23T04:32:18;11.10;99.90
7648;DHT22;3866;48.020;11.720;2022-08-23T04:34:47;11.10;99.90
7648;DHT22;3866;48.020;11.720;2022-08-23T04:37:14;11.00;99.90
7648;DHT22;3866;48.020;11.720;2022-08-23T04:39:42;11.00;99.90
7648;DHT22;3866;48.020;11.720;2022-08-23T04:42:26;11.10;99.90
7648;DHT22;3866;48.020;11.720;2022-08-23T04:44:54;11.20;99.90
7648;DHT22;3866;48.020;11.720;2022-08-23T04:47:22;11.20;99.90
7648;DHT22;3866;48.020;11.720;2022-08-23T04:49:50;11.20;99.90
7648;DHT22;3866;48.020;11.720;2022-08-23T04:52:17;11.20;99.90
7648;DHT22;3866;48.020;11.720;2022-08-23T04:54:44;11.30;99.90
7648;DHT22;3866;48.020;11.720;2022-08-23T04:57:12;11.30;99.90
7648;DHT22;3866;48.020;11.720;2022-08-23T04:59:39;11.30;99.90
7648;DHT22;3866;48.020;11.720;2022-08-23T05:02:07;11.20;99.90
7648;DHT22;3866;48.020;11.720;2022-08-23T05:04:34;11.10;99.90
7648;DHT22;3866;48.020;11.720;2022-08-23T05:07:02;11.10;99.90
7648;DHT22;3866;48.020;11.720;2022-08-23T05:09:29;11.10;99.90
7648;DHT22;3866;48.020;11.720;2022-08-23T05:11:56;11.20;99.90
7648;DHT22;3866;48.020;11.720;2022-08-23T05:14:23;11.40;99.90
7648;DHT22;3866;48.020;11.720;2022-08-23T05:16:50;11.40;99.90
7648;DHT22;3866;48.020;11.720;2022-08-23T05:19:17;11.60;99.90
7648;DHT22;3866;48.020;11.720;2022-08-23T05:21:45;11.50;99.90
7648;DHT22;3866;48.020;11.720;2022-08-23T05:24:13;11.50;99.90
7648;DHT22;3866;48.020;11.720;2022-08-23T05:26:40;11.50;99.90
7648;DHT22;3866;48.020;11.720;2022-08-23T05:29:07;11.60;99.90
7648;DHT22;3866;48.020;11.720;2022-08-23T05:31:34;11.70;99.90
7648;DHT22;3866;48.020;11.720;2022-08-23T05:34:01;11.80;99.90
7648;DHT22;3866;48.020;11.720;2022-08-23T05:36:28;11.80;99.90
7648;DHT22;3866;48.020;11.720;2022-08-23T05:38:55;11.90;99.90
7648;DHT22;3866;48.020;11.720;2022-08-23T05:41:23;12.00;99.90
7648;DHT22;3866;48.020;11.720;2022-08-23T05:43:50;12.20;99.90
7648;DHT22;3866;48.020;11.720;2022-08-23T05:46:19;12.20;99.90
7648;DHT22;3866;48.020;11.720;2022-08-23T05:48:48;12.30;99.90
7648;DHT22;3866;48.020;11.720;2022-08-23T05:51:17;12.50;99.90
7648;DHT22;3866;48.020;11.720;2022-08-23T05:53:45;12.80;99.90
7648;DHT22;3866;48.020;11.720;2022-08-23T05:56:16;13.10;99.90
7648;DHT22;3866;48.020;11.720;2022-08-23T05:58:46;13.10;99.90
7648;DHT22;3866;48.020;11.720;2022-08-23T06:01:14;13.10;99.90
7648;DHT22;3866;48.020;11.720;2022-08-23T06:03:42;12.90;99.90
7648;DHT22;3866;48.020;11.720;2022-08-23T06:06:10;13.20;99.90
7648;DHT22;3866;48.020;11.720;2022-08-23T06:08:38;13.40;99.90
7648;DHT22;3866;48.020;11.720;2022-08-23T06:11:07;13.50;99.90
7648;DHT22;3866;48.020;11.720;2022-08-23T06:13:38;13.90;99.90
7648;DHT22;3866;48.020;11.720;2022-08-23T06:16:07;14.10;99.90
7648;DHT22;3866;48.020;11.720;2022-08-23T06:18:34;14.20;99.90
7648;DHT22;3866;48.020;11.720;2022-08-23T06:21:02;14.50;99.90
7648;DHT22;3866;48.020;11.720;2022-08-23T06:23:29;14.50;99.90
7648;DHT22;3866;48.020;11.720;2022-08-23T06:25:57;14.60;99.90
7648;DHT22;3866;48.020;11.720;2022-08-23T06:28:24;14.70;99.90
7648;DHT22;3866;48.020;11.720;2022-08-23T06:30:53;14.80;99.90
7648;DHT22;3866;48.020;11.720;2022-08-23T06:33:21;15.10;99.90
7648;DHT22;3866;48.020;11.720;2022-08-23T06:35:49;15.60;99.90
7648;DHT22;3866;48.020;11.720;2022-08-23T06:38:16;16.70;99.90
7648;DHT22;3866;48.020;11.720;2022-08-23T06:40:43;16.90;99.90
7648;DHT22;3866;48.020;11.720;2022-08-23T06:43:10;17.60;99.90
7648;DHT22;3866;48.020;11.720;2022-08-23T06:45:37;18.10;99.90
7648;DHT22;3866;48.020;11.720;2022-08-23T06:48:04;18.40;99.90
7648;DHT22;3866;48.020;11.720;2022-08-23T06:50:34;18.60;99.90
7648;DHT22;3866;48.020;11.720;2022-08-23T06:53:01;18.80;99.90
7648;DHT22;3866;48.020;11.720;2022-08-23T06:55:27;19.20;99.90
7648;DHT22;3866;48.020;11.720;2022-08-23T06:57:55;19.40;99.90
7648;DHT22;3866;48.020;11.720;2022-08-23T07:00:22;19.50;99.90
7648;DHT22;3866;48.020;11.720;2022-08-23T07:02:49;19.50;99.90
7648;DHT22;3866;48.020;11.720;2022-08-23T07:05:16;20.00;99.90
7648;DHT22;3866;48.020;11.720;2022-08-23T07:07:44;19.80;99.90
7648;DHT22;3866;48.020;11.720;2022-08-23T07:10:11;19.60;99.90
7648;DHT22;3866;48.020;11.720;2022-08-23T07:12:41;19.60;99.90
7648;DHT22;3866;48.020;11.720;2022-08-23T07:15:09;19.80;99.90
7648;DHT22;3866;48.020;11.720;2022-08-23T07:17:36;20.30;99.90
7648;DHT22;3866;48.020;11.720;2022-08-23T07:20:04;20.10;99.90
7648;DHT22;3866;48.020;11.720;2022-08-23T07:22:31;20.70;99.90
7648;DHT22;3866;48.020;11.720;2022-08-23T07:25:00;21.30;99.90
7648;DHT22;3866;48.020;11.720;2022-08-23T07:27:27;21.60;99.90
7648;DHT22;3866;48.020;11.720;2022-08-23T07:29:54;22.00;99.90
7648;DHT22;3866;48.020;11.720;2022-08-23T07:32:21;23.30;99.90
7648;DHT22;3866;48.020;11.720;2022-08-23T07:34:48;22.80;99.90
7648;DHT22;3866;48.020;11.720;2022-08-23T07:37:15;22.90;99.90
7648;DHT22;3866;48.020;11.720;2022-08-23T07:39:42;22.50;99.90
7648;DHT22;3866;48.020;11.720;2022-08-23T07:42:10;22.20;99.90
7648;DHT22;3866;48.020;11.720;2022-08-23T07:44:37;22.30;99.90
7648;DHT22;3866;48.020;11.720;2022-08-23T07:47:04;22.90;99.90
7648;DHT22;3866;48.020;11.720;2022-08-23T07:49:31;23.10;99.90
7648;DHT22;3866;48.020;11.720;2022-08-23T07:51:58;23.80;99.90
7648;DHT22;3866;48.020;11.720;2022-08-23T07:54:26;24.00;99.90
7648;DHT22;3866;48.020;11.720;2022-08-23T07:56:53;23.90;99.90
7648;DHT22;3866;48.020;11.720;2022-08-23T07:59:21;24.00;99.90
7648;DHT22;3866;48.020;11.720;2022-08-23T08:01:48;24.40;99.90
7648;DHT22;3866;48.020;11.720;2022-08-23T08:04:16;26.30;99.90
7648;DHT22;3866;48.020;11.720;2022-08-23T08:06:44;25.60;99.90
7648;DHT22;3866;48.020;11.720;2022-08-23T08:09:13;25.30;99.90
7648;DHT22;3866;48.020;11.720;2022-08-23T08:11:43;25.60;99.90
7648;DHT22;3866;48.020;11.720;2022-08-23T08:14:12;25.40;99.90
7648;DHT22;3866;48.020;11.720;2022-08-23T08:16:42;25.70;99.90
7648;DHT22;3866;48.020;11.720;2022-08-23T08:19:12;25.60;99.90
7648;DHT22;3866;48.020;11.720;2022-08-23T08:21:40;26.40;99.90
7648;DHT22;3866;48.020;11.720;2022-08-23T08:24:08;27.50;99.90
7648;DHT22;3866;48.020;11.720;2022-08-23T08:26:37;27.00;99.90
7648;DHT22;3866;48.020;11.720;2022-08-23T08:29:04;25.80;99.90
7648;DHT22;3866;48.020;11.720;2022-08-23T08:31:31;24.40;99.90
7648;DHT22;3866;48.020;11.720;2022-08-23T08:34:00;25.50;99.90
7648;DHT22;3866;48.020;11.720;2022-08-23T08:36:29;25.30;99.90
7648;DHT22;3866;48.020;11.720;2022-08-23T08:38:57;25.10;99.90
7648;DHT22;3866;48.020;11.720;2022-08-23T08:41:39;24.10;99.90
7648;DHT22;3866;48.020;11.720;2022-08-23T08:44:19;24.70;99.90
7648;DHT22;3866;48.020;11.720;2022-08-23T08:46:50;24.50;99.90
7648;DHT22;3866;48.020;11.720;2022-08-23T08:49:30;24.20;99.90
7648;DHT22;3866;48.020;11.720;2022-08-23T08:52:04;23.70;99.90
7648;DHT22;3866;48.020;11.720;2022-08-23T08:54:36;22.90;99.90
7648;DHT22;3866;48.020;11.720;2022-08-23T08:57:06;21.90;99.90
7648;DHT22;3866;48.020;11.720;2022-08-23T08:59:43;21.80;99.90
7648;DHT22;3866;48.020;11.720;2022-08-23T09:02:16;22.40;99.90
7648;DHT22;3866;48.020;11.720;2022-08-23T09:04:45;23.00;99.90
7648;DHT22;3866;48.020;11.720;2022-08-23T09:07:20;22.90;99.90
7648;DHT22;3866;48.020;11.720;2022-08-23T09:10:12;22.20;99.90
7648;DHT22;3866;48.020;11.720;2022-08-23T09:12:46;22.80;99.90
7648;DHT22;3866;48.020;11.720;2022-08-23T09:15:23;23.30;99.90
7648;DHT22;3866;48.020;11.720;2022-08-23T09:17:56;23.00;99.90
7648;DHT22;3866;48.020;11.720;2022-08-23T09:20:27;22.80;99.90
7648;DHT22;3866;48.020;11.720;2022-08-23T09:23:02;22.60;99.90
7648;DHT22;3866;48.020;11.720;2022-08-23T09:25:30;22.40;99.90
7648;DHT22;3866;48.020;11.720;2022-08-23T09:27:57;22.70;99.90
7648;DHT22;3866;48.020;11.720;2022-08-23T09:30:44;23.00;99.90
7648;DHT22;3866;48.020;11.720;2022-08-23T09:33:16;22.40;99.90
7648;DHT22;3866;48.020;11.720;2022-08-23T09:36:03;22.10;99.90
7648;DHT22;3866;48.020;11.720;2022-08-23T09:38:30;21.90;99.90
7648;DHT22;3866;48.020;11.720;2022-08-23T09:40:58;21.90;99.90
7648;DHT22;3866;48.020;11.720;2022-08-23T09:43:27;21.60;99.90
7648;DHT22;3866;48.020;11.720;2022-08-23T09:45:58;22.00;99.90
7648;DHT22;3866;48.020;11.720;2022-08-23T09:48:35;22.30;99.90
7648;DHT22;3866;48.020;11.720;2022-08-23T09:51:16;22.30;99.90
7648;DHT22;3866;48.020;11.720;2022-08-23T09:54:01;22.30;99.90
7648;DHT22;3866;48.020;11.720;2022-08-23T09:56:33;22.20;99.90
7648;DHT22;3866;48.020;11.720;2022-08-23T09:59:01;22.40;99.90
7648;DHT22;3866;48.020;11.720;2022-08-23T10:01:31;22.40;99.90
7648;DHT22;3866;48.020;11.720;2022-08-23T10:04:09;22.30;99.90
7648;DHT22;3866;48.020;11.720;2022-08-23T10:06:38;22.30;99.90
7648;DHT22;3866;48.020;11.720;2022-08-23T10:09:08;22.30;99.90
7648;DHT22;3866;48.020;11.720;2022-08-23T10:11:37;22.20;99.90
7648;DHT22;3866;48.020;11.720;2022-08-23T10:14:05;22.30;99.90
7648;DHT22;3866;48.020;11.720;2022-08-23T10:16:38;22.30;99.90
7648;DHT22;3866;48.020;11.720;2022-08-23T10:19:15;22.60;99.90
7648;DHT22;3866;48.020;11.720;2022-08-23T10:21:52;22.80;99.90
7648;DHT22;3866;48.020;11.720;2022-08-23T10:24:31;22.80;99.90
7648;DHT22;3866;48.020;11.720;2022-08-23T10:27:09;22.60;99.90
7648;DHT22;3866;48.020;11.720;2022-08-23T10:29:59;22.40;99.90
7648;DHT22;3866;48.020;11.720;2022-08-23T10:32:54;22.10;99.90
7648;DHT22;3866;48.020;11.720;2022-08-23T10:35:38;22.10;99.90
7648;DHT22;3866;48.020;11.720;2022-08-23T10:38:27;22.40;99.90
7648;DHT22;3866;48.020;11.720;2022-08-23T10:41:02;22.60;99.90
7648;DHT22;3866;48.020;11.720;2022-08-23T10:43:38;22.80;99.90
7648;DHT22;3866;48.020;11.720;2022-08-23T10:46:07;22.90;99.90
7648;DHT22;3866;48.020;11.720;2022-08-23T10:48:36;22.90;99.90
7648;DHT22;3866;48.020;11.720;2022-08-23T10:51:08;23.00;99.90
7648;DHT22;3866;48.020;11.720;2022-08-23T10:53:40;23.10;99.90
7648;DHT22;3866;48.020;11.720;2022-08-23T10:56:12;23.20;99.90
7648;DHT22;3866;48.020;11.720;2022-08-23T10:58:47;23.30;99.90
7648;DHT22;3866;48.020;11.720;2022-08-23T11:01:17;23.20;99.90
7648;DHT22;3866;48.020;11.720;2022-08-23T11:03:51;23.10;99.90
7648;DHT22;3866;48.020;11.720;2022-08-23T11:06:25;23.00;99.90
7648;DHT22;3866;48.020;11.720;2022-08-23T11:09:03;22.70;99.90
7648;DHT22;3866;48.020;11.720;2022-08-23T11:11:39;22.60;99.90
7648;DHT22;3866;48.020;11.720;2022-08-23T11:14:09;22.90;99.90
7648;DHT22;3866;48.020;11.720;2022-08-23T11:16:37;23.10;99.90
7648;DHT22;3866;48.020;11.720;2022-08-23T11:19:11;23.30;99.90
7648;DHT22;3866;48.020;11.720;2022-08-23T11:21:46;23.40;99.90
7648;DHT22;3866;48.020;11.720;2022-08-23T11:24:49;23.70;99.90
7648;DHT22;3866;48.020;11.720;2022-08-23T11:27:35;23.60;99.90
7648;DHT22;3866;48.020;11.720;2022-08-23T11:30:37;23.70;99.90
7648;DHT22;3866;48.020;11.720;2022-08-23T11:33:15;23.40;99.90
7648;DHT22;3866;48.020;11.720;2022-08-23T11:35:44;23.70;99.90
7648;DHT22;3866;48.020;11.720;2022-08-23T11:38:14;23.60;99.90
7648;DHT22;3866;48.020;11.720;2022-08-23T11:40:56;23.70;99.90
7648;DHT22;3866;48.020;11.720;2022-08-23T11:43:30;24.00;99.90
7648;DHT22;3866;48.020;11.720;2022-08-23T11:49:28;24.20;99.90
7648;DHT22;3866;48.020;11.720;2022-08-23T11:52:02;23.90;99.90
7648;DHT22;3866;48.020;11.720;2022-08-23T11:57:42;24.00;99.90
7648;DHT22;3866;48.020;11.720;2022-08-23T12:00:18;24.50;99.90
7648;DHT22;3866;48.020;11.720;2022-08-23T12:02:53;24.70;99.90
7648;DHT22;3866;48.020;11.720;2022-08-23T12:05:39;24.40;99.90
7648;DHT22;3866;48.020;11.720;2022-08-23T12:08:31;25.00;99.90
7648;DHT22;3866;48.020;11.720;2022-08-23T12:11:07;25.60;99.90
7648;DHT22;3866;48.020;11.720;2022-08-23T12:13:51;26.70;99.90
7648;DHT22;3866;48.020;11.720;2022-08-23T12:16:29;27.50;99.90
7648;DHT22;3866;48.020;11.720;2022-08-23T12:19:00;27.10;99.90
7648;DHT22;3866;48.020;11.720;2022-08-23T12:21:32;27.70;99.90
7648;DHT22;3866;48.020;11.720;2022-08-23T12:24:02;27.70;99.90
7648;DHT22;3866;48.020;11.720;2022-08-23T12:26:44;28.10;99.90
7648;DHT22;3866;48.020;11.720;2022-08-23T12:29:22;28.40;99.90
7648;DHT22;3866;48.020;11.720;2022-08-23T12:31:56;28.90;99.90
7648;DHT22;3866;48.020;11.720;2022-08-23T12:34:30;29.00;99.90
7648;DHT22;3866;48.020;11.720;2022-08-23T12:37:03;28.20;99.90
7648;DHT22;3866;48.020;11.720;2022-08-23T12:39:37;29.30;99.90
7648;DHT22;3866;48.020;11.720;2022-08-23T12:42:09;29.40;99.90
7648;DHT22;3866;48.020;11.720;2022-08-23T12:44:43;29.30;99.60
7648;DHT22;3866;48.020;11.720;2022-08-23T12:47:13;29.40;99.90
7648;DHT22;3866;48.020;11.720;2022-08-23T12:49:41;29.10;99.90
7648;DHT22;3866;48.020;11.720;2022-08-23T12:52:10;28.30;99.90
7648;DHT22;3866;48.020;11.720;2022-08-23T12:54:39;27.90;99.70
7648;DHT22;3866;48.020;11.720;2022-08-23T12:57:10;28.60;99.60
7648;DHT22;3866;48.020;11.720;2022-08-23T12:59:47;28.80;99.90
7648;DHT22;3866;48.020;11.720;2022-08-23T13:02:19;30.50;97.30
7648;DHT22;3866;48.020;11.720;2022-08-23T13:04:50;29.60;98.00
7648;DHT22;3866;48.020;11.720;2022-08-23T13:07:20;29.20;98.60
7648;DHT22;3866;48.020;11.720;2022-08-23T13:09:49;28.70;99.90
7648;DHT22;3866;48.020;11.720;2022-08-23T13:12:17;29.60;97.80
7648;DHT22;3866;48.020;11.720;2022-08-23T13:14:48;28.50;97.90
7648;DHT22;3866;48.020;11.720;2022-08-23T13:17:21;28.40;96.80
7648;DHT22;3866;48.020;11.720;2022-08-23T13:20:12;27.50;98.50
7648;DHT22;3866;48.020;11.720;2022-08-23T13:22:59;27.80;98.40
7648;DHT22;3866;48.020;11.720;2022-08-23T13:25:29;28.00;97.40
7648;DHT22;3866;48.020;11.720;2022-08-23T13:27:58;27.80;97.50
7648;DHT22;3866;48.020;11.720;2022-08-23T13:30:28;27.70;98.10
7648;DHT22;3866;48.020;11.720;2022-08-23T13:33:18;27.40;97.50
7648;DHT22;3866;48.020;11.720;2022-08-23T13:35:47;27.40;98.00
7648;DHT22;3866;48.020;11.720;2022-08-23T13:38:20;27.00;97.80
7648;DHT22;3866;48.020;11.720;2022-08-23T13:40:59;26.90;99.50
7648;DHT22;3866;48.020;11.720;2022-08-23T13:43:30;26.50;98.50
7648;DHT22;3866;48.020;11.720;2022-08-23T13:46:09;26.60;99.50
7648;DHT22;3866;48.020;11.720;2022-08-23T13:48:44;26.80;98.40
7648;DHT22;3866;48.020;11.720;2022-08-23T13:51:33;26.80;98.90
7648;DHT22;3866;48.020;11.720;2022-08-23T13:54:03;27.00;98.70
7648;DHT22;3866;48.020;11.720;2022-08-23T13:56:33;26.80;98.90
7648;DHT22;3866;48.020;11.720;2022-08-23T13:59:03;26.60;98.50
7648;DHT22;3866;48.020;11.720;2022-08-23T14:01:35;26.70;99.30
7648;DHT22;3866;48.020;11.720;2022-08-23T14:04:02;26.10;98.70
7648;DHT22;3866;48.020;11.720;2022-08-23T14:06:29;26.10;99.60
7648;DHT22;3866;48.020;11.720;2022-08-23T14:08:56;26.40;98.90
7648;DHT22;3866;48.020;11.720;2022-08-23T14:11:23;26.60;99.70
7648;DHT22;3866;48.020;11.720;2022-08-23T14:13:50;26.50;99.90
7648;DHT22;3866;48.020;11.720;2022-08-23T14:16:22;26.40;99.40
7648;DHT22;3866;48.020;11.720;2022-08-23T14:18:51;26.40;98.20
7648;DHT22;3866;48.020;11.720;2022-08-23T14:21:18;26.50;99.30
7648;DHT22;3866;48.020;11.720;2022-08-23T14:23:45;26.50;98.80
7648;DHT22;3866;48.020;11.720;2022-08-23T14:26:15;26.50;99.10
7648;DHT22;3866;48.020;11.720;2022-08-23T14:28:44;26.50;99.40
7648;DHT22;3866;48.020;11.720;2022-08-23T14:31:11;26.50;98.50
7648;DHT22;3866;48.020;11.720;2022-08-23T14:33:39;26.70;99.10
7648;DHT22;3866;48.020;11.720;2022-08-23T14:36:08;26.40;97.60
7648;DHT22;3866;48.020;11.720;2022-08-23T14:38:36;26.40;99.00
7648;DHT22;3866;48.020;11.720;2022-08-23T14:41:06;26.10;98.00
7648;DHT22;3866;48.020;11.720;2022-08-23T14:43:34;26.40;98.90
7648;DHT22;3866;48.020;11.720;2022-08-23T14:46:01;26.20;98.80
7648;DHT22;3866;48.020;11.720;2022-08-23T14:48:29;26.20;99.60
7648;DHT22;3866;48.020;11.720;2022-08-23T14:50:57;26.30;99.50
7648;DHT22;3866;48.020;11.720;2022-08-23T14:53:27;26.50;99.80
7648;DHT22;3866;48.020;11.720;2022-08-23T14:55:54;26.50;99.60
7648;DHT22;3866;48.020;11.720;2022-08-23T14:58:22;26.50;99.90
7648;DHT22;3866;48.020;11.720;2022-08-23T15:00:50;26.50;99.40
7648;DHT22;3866;48.020;11.720;2022-08-23T15:03:22;26.50;99.30
7648;DHT22;3866;48.020;11.720;2022-08-23T15:05:49;26.20;99.90
7648;DHT22;3866;48.020;11.720;2022-08-23T15:08:17;26.20;99.90
7648;DHT22;3866;48.020;11.720;2022-08-23T15:10:46;26.40;99.50
7648;DHT22;3866;48.020;11.720;2022-08-23T15:13:13;26.30;99.20
7648;DHT22;3866;48.020;11.720;2022-08-23T15:15:40;26.40;98.00
7648;DHT22;3866;48.020;11.720;2022-08-23T15:18:08;26.30;98.70
7648;DHT22;3866;48.020;11.720;2022-08-23T15:20:36;26.40;98.70
7648;DHT22;3866;48.020;11.720;2022-08-23T15:23:04;26.10;98.20
7648;DHT22;3866;48.020;11.720;2022-08-23T15:25:34;26.20;98.50
7648;DHT22;3866;48.020;11.720;2022-08-23T15:28:04;26.10;99.90
7648;DHT22;3866;48.020;11.720;2022-08-23T15:30:32;25.80;99.00
7648;DHT22;3866;48.020;11.720;2022-08-23T15:32:59;25.90;99.90
7648;DHT22;3866;48.020;11.720;2022-08-23T15:35:28;25.90;99.70
7648;DHT22;3866;48.020;11.720;2022-08-23T15:37:56;25.50;99.90
7648;DHT22;3866;48.020;11.720;2022-08-23T15:40:24;25.70;99.90
7648;DHT22;3866;48.020;11.720;2022-08-23T15:42:51;25.90;99.90
7648;DHT22;3866;48.020;11.720;2022-08-23T15:45:20;25.90;99.90
7648;DHT22;3866;48.020;11.720;2022-08-23T15:47:49;26.00;99.90
7648;DHT22;3866;48.020;11.720;2022-08-23T15:50:18;26.00;99.90
7648;DHT22;3866;48.020;11.720;2022-08-23T15:52:46;25.90;99.90
7648;DHT22;3866;48.020;11.720;2022-08-23T15:55:13;26.00;99.90
7648;DHT22;3866;48.020;11.720;2022-08-23T15:57:43;25.90;99.90
7648;DHT22;3866;48.020;11.720;2022-08-23T16:00:13;25.90;99.90
7648;DHT22;3866;48.020;11.720;2022-08-23T16:02:43;25.90;99.90
7648;DHT22;3866;48.020;11.720;2022-08-23T16:05:11;25.80;99.90
7648;DHT22;3866;48.020;11.720;2022-08-23T16:07:39;25.80;99.90
7648;DHT22;3866;48.020;11.720;2022-08-23T16:10:07;25.50;99.90
7648;DHT22;3866;48.020;11.720;2022-08-23T16:12:37;25.40;99.90